sensor_id;sensor_type;location;lat;lon;timestamp;pressure;altitude;pressure_sealevel;temperature;humidity
39223;BME280;24936;46.328;11.026;2023-08-30T00:01:19;93359.41;;;13.13;100.00
39223;BME280;24936;46.328;11.026;2023-08-30T00:03:45;93360.91;;;12.93;100.00
39223;BME280;24936;46.328;11.026;2023-08-30T00:06:10;93364.38;;;12.78;100.00
39223;BME280;24936;46.328;11.026;2023-08-30T00:08:36;93358.97;;;12.72;100.00
39223;BME280;24936;46.328;11.026;2023-08-30T00:11:01;93354.81;;;12.77;100.00
39223;BME280;24936;46.328;11.026;2023-08-30T00:13:32;93361.72;;;12.63;100.00
39223;BME280;24936;46.328;11.026;2023-08-30T00:15:58;93358.19;;;12.71;100.00
39223;BME280;24936;46.328;11.026;2023-08-30T00:18:24;93349.41;;;12.56;100.00
39223;BME280;24936;46.328;11.026;2023-08-30T00:20:49;93358.50;;;12.53;100.00
39223;BME280;24936;46.328;11.026;2023-08-30T00:23:15;93359.34;;;12.68;100.00
39223;BME280;24936;46.328;11.026;2023-08-30T00:25:42;93356.09;;;12.66;100.00
39223;BME280;24936;46.328;11.026;2023-08-30T00:28:07;93347.00;;;12.46;100.00
39223;BME280;24936;46.328;11.026;2023-08-30T00:30:33;93365.38;;;12.39;100.00
39223;BME280;24936;46.328;11.026;2023-08-30T00:32:58;93353.53;;;12.35;100.00
39223;BME280;24936;46.328;11.026;2023-08-30T00:35:24;93349.31;;;12.26;100.00
39223;BME280;24936;46.328;11.026;2023-08-30T00:37:49;93353.69;;;12.18;100.00
39223;BME280;24936;46.328;11.026;2023-08-30T00:40:14;93350.97;;;12.27;100.00
39223;BME280;24936;46.328;11.026;2023-08-30T00:42:40;93350.84;;;12.20;100.00
39223;BME280;24936;46.328;11.026;2023-08-30T00:45:07;93346.22;;;12.45;100.00
39223;BME280;24936;46.328;11.026;2023-08-30T00:47:33;93356.28;;;12.42;100.00
39223;BME280;24936;46.328;11.026;2023-08-30T00:50:00;93348.56;;;12.40;100.00
39223;BME280;24936;46.328;11.026;2023-08-30T00:52:26;93346.31;;;12.52;100.00
39223;BME280;24936;46.328;11.026;2023-08-30T00:54:51;93342.09;;;12.19;100.00
39223;BME280;24936;46.328;11.026;2023-08-30T00:57:17;93344.50;;;12.06;100.00
39223;BME280;24936;46.328;11.026;2023-08-30T00:59:43;93335.25;;;12.10;100.00
39223;BME280;24936;46.328;11.026;2023-08-30T01:02:09;93337.13;;;12.01;100.00
39223;BME280;24936;46.328;11.026;2023-08-30T01:04:34;93335.50;;;12.00;100.00
39223;BME280;24936;46.328;11.026;2023-08-30T01:07:00;93340.72;;;12.32;100.00
39223;BME280;24936;46.328;11.026;2023-08-30T01:09:25;93338.19;;;12.38;100.00
39223;BME280;24936;46.328;11.026;2023-08-30T01:12:02;93337.44;;;12.30;100.00
39223;BME280;24936;46.328;11.026;2023-08-30T01:14:38;93342.47;;;12.16;100.00
39223;BME280;24936;46.328;11.026;2023-08-30T01:17:07;93346.69;;;12.02;100.00
39223;BME280;24936;46.328;11.026;2023-08-30T01:25:12;93348.88;;;11.99;100.00
39223;BME280;24936;46.328;11.026;2023-08-30T01:27:42;93351.41;;;11.84;100.00
39223;BME280;24936;46.328;11.026;2023-08-30T01:30:10;93346.38;;;11.74;100.00
39223;BME280;24936;46.328;11.026;2023-08-30T01:32:37;93352.75;;;11.80;100.00
39223;BME280;24936;46.328;11.026;2023-08-30T01:35:05;93349.91;;;11.89;100.00
39223;BME280;24936;46.328;11.026;2023-08-30T01:37:32;93344.09;;;11.94;100.00
39223;BME280;24936;46.328;11.026;2023-08-30T01:39:58;93349.03;;;11.97;100.00
39223;BME280;24936;46.328;11.026;2023-08-30T01:42:25;93349.94;;;11.81;100.00
39223;BME280;24936;46.328;11.026;2023-08-30T01:44:53;93345.25;;;11.68;100.00
39223;BME280;24936;46.328;11.026;2023-08-30T01:47:23;93346.03;;;11.77;100.00
39223;BME280;24936;46.328;11.026;2023-08-30T01:49:51;93351.56;;;11.82;100.00
39223;BME280;24936;46.328;11.026;2023-08-30T01:52:18;93352.47;;;11.98;100.00
39223;BME280;24936;46.328;11.026;2023-08-30T01:54:44;93353.66;;;11.95;100.00
39223;BME280;24936;46.328;11.026;2023-08-30T01:57:11;93354.25;;;12.05;100.00
39223;BME280;24936;46.328;11.026;2023-08-30T01:59:36;93348.94;;;11.82;100.00
39223;BME280;24936;46.328;11.026;2023-08-30T02:02:02;93354.66;;;11.62;100.00
39223;BME280;24936;46.328;11.026;2023-08-30T02:04:29;93354.88;;;11.53;100.00
39223;BME280;24936;46.328;11.026;2023-08-30T02:07:04;93361.34;;;11.42;100.00
39223;BME280;24936;46.328;11.026;2023-08-30T02:12:04;93357.03;;;11.81;100.00
39223;BME280;24936;46.328;11.026;2023-08-30T02:14:32;93360.06;;;11.92;100.00
39223;BME280;24936;46.328;11.026;2023-08-30T02:16:59;93350.38;;;11.61;100.00
39223;BME280;24936;46.328;11.026;2023-08-30T02:19:25;93358.28;;;11.61;100.00
39223;BME280;24936;46.328;11.026;2023-08-30T02:21:50;93351.00;;;11.63;100.00
39223;BME280;24936;46.328;11.026;2023-08-30T02:24:16;93350.66;;;11.67;100.00
39223;BME280;24936;46.328;11.026;2023-08-30T02:26:41;93344.41;;;11.68;100.00
39223;BME280;24936;46.328;11.026;2023-08-30T02:29:07;93345.72;;;11.72;100.00
39223;BME280;24936;46.328;11.026;2023-08-30T02:31:33;93333.22;;;11.66;100.00
39223;BME280;24936;46.328;11.026;2023-08-30T02:33:59;93338.03;;;11.62;100.00
39223;BME280;24936;46.328;11.026;2023-08-30T02:36:24;93342.00;;;11.58;100.00
39223;BME280;24936;46.328;11.026;2023-08-30T02:38:49;93337.28;;;11.76;100.00
39223;BME280;24936;46.328;11.026;2023-08-30T02:41:15;93342.97;;;11.88;100.00
39223;BME280;24936;46.328;11.026;2023-08-30T02:43:40;93332.78;;;11.85;100.00
39223;BME280;24936;46.328;11.026;2023-08-30T02:46:06;93330.91;;;11.94;100.00
39223;BME280;24936;46.328;11.026;2023-08-30T02:48:32;93331.44;;;11.89;100.00
39223;BME280;24936;46.328;11.026;2023-08-30T02:50:57;93326.16;;;11.89;100.00
39223;BME280;24936;46.328;11.026;2023-08-30T02:53:23;93331.13;;;11.84;100.00
39223;BME280;24936;46.328;11.026;2023-08-30T02:55:49;93338.28;;;11.75;100.00
39223;BME280;24936;46.328;11.026;2023-08-30T02:58:14;93340.78;;;11.69;100.00
39223;BME280;24936;46.328;11.026;2023-08-30T03:00:40;93339.00;;;11.61;100.00
39223;BME280;24936;46.328;11.026;2023-08-30T03:03:05;93339.47;;;11.65;100.00
39223;BME280;24936;46.328;11.026;2023-08-30T03:05:31;93340.09;;;11.75;100.00
39223;BME280;24936;46.328;11.026;2023-08-30T03:07:56;93338.13;;;11.77;100.00
39223;BME280;24936;46.328;11.026;2023-08-30T03:10:22;93338.47;;;11.74;100.00
39223;BME280;24936;46.328;11.026;2023-08-30T03:12:48;93340.97;;;11.67;100.00
39223;BME280;24936;46.328;11.026;2023-08-30T03:15:13;93342.75;;;11.67;100.00
39223;BME280;24936;46.328;11.026;2023-08-30T03:17:39;93350.34;;;11.70;100.00
39223;BME280;24936;46.328;11.026;2023-08-30T03:20:05;93349.00;;;11.74;100.00
39223;BME280;24936;46.328;11.026;2023-08-30T03:22:31;93351.91;;;11.79;100.00
39223;BME280;24936;46.328;11.026;2023-08-30T03:24:57;93352.63;;;11.73;100.00
39223;BME280;24936;46.328;11.026;2023-08-30T03:27:23;93358.38;;;11.76;100.00
39223;BME280;24936;46.328;11.026;2023-08-30T03:29:48;93352.28;;;11.76;100.00
39223;BME280;24936;46.328;11.026;2023-08-30T03:32:16;93353.63;;;11.72;100.00
39223;BME280;24936;46.328;11.026;2023-08-30T03:34:45;93357.59;;;11.68;100.00
39223;BME280;24936;46.328;11.026;2023-08-30T03:37:12;93364.56;;;11.60;100.00
39223;BME280;24936;46.328;11.026;2023-08-30T03:39:38;93357.00;;;11.57;100.00
39223;BME280;24936;46.328;11.026;2023-08-30T03:42:04;93363.38;;;11.63;100.00
39223;BME280;24936;46.328;11.026;2023-08-30T03:44:29;93357.66;;;11.59;100.00
39223;BME280;24936;46.328;11.026;2023-08-30T03:46:55;93354.09;;;11.75;100.00
39223;BME280;24936;46.328;11.026;2023-08-30T03:49:22;93357.00;;;11.57;100.00
39223;BME280;24936;46.328;11.026;2023-08-30T03:51:47;93354.31;;;11.66;100.00
39223;BME280;24936;46.328;11.026;2023-08-30T03:54:13;93351.38;;;11.60;100.00
39223;BME280;24936;46.328;11.026;2023-08-30T03:56:42;93353.56;;;11.48;100.00
39223;BME280;24936;46.328;11.026;2023-08-30T03:59:07;93350.16;;;11.71;100.00
39223;BME280;24936;46.328;11.026;2023-08-30T04:01:33;93349.78;;;11.83;100.00
39223;BME280;24936;46.328;11.026;2023-08-30T04:03:59;93350.56;;;11.83;100.00
39223;BME280;24936;46.328;11.026;2023-08-30T04:06:24;93352.16;;;11.92;100.00
39223;BME280;24936;46.328;11.026;2023-08-30T04:08:49;93362.19;;;11.74;100.00
39223;BME280;24936;46.328;11.026;2023-08-30T04:11:15;93361.22;;;11.67;100.00
39223;BME280;24936;46.328;11.026;2023-08-30T04:13:40;93363.94;;;11.50;100.00
39223;BME280;24936;46.328;11.026;2023-08-30T04:16:06;93358.03;;;11.48;100.00
39223;BME280;24936;46.328;11.026;2023-08-30T04:18:31;93356.53;;;11.54;100.00
39223;BME280;24936;46.328;11.026;2023-08-30T04:20:58;93362.94;;;11.51;100.00
39223;BME280;24936;46.328;11.026;2023-08-30T04:23:23;93358.03;;;11.48;100.00
39223;BME280;24936;46.328;11.026;2023-08-30T04:25:49;93356.13;;;11.34;100.00
39223;BME280;24936;46.328;11.026;2023-08-30T04:28:14;93356.13;;;11.25;100.00
39223;BME280;24936;46.328;11.026;2023-08-30T04:30:40;93360.97;;;11.13;100.00
39223;BME280;24936;46.328;11.026;2023-08-30T04:33:06;93360.09;;;11.29;100.00
39223;BME280;24936;46.328;11.026;2023-08-30T04:35:31;93371.06;;;11.41;100.00
39223;BME280;24936;46.328;11.026;2023-08-30T04:38:00;93369.44;;;11.32;100.00
39223;BME280;24936;46.328;11.026;2023-08-30T04:40:27;93360.13;;;11.21;100.00
39223;BME280;24936;46.328;11.026;2023-08-30T04:42:52;93356.78;;;11.27;100.00
39223;BME280;24936;46.328;11.026;2023-08-30T04:45:18;93353.00;;;11.30;100.00
39223;BME280;24936;46.328;11.026;2023-08-30T04:47:43;93359.25;;;11.29;100.00
39223;BME280;24936;46.328;11.026;2023-08-30T04:50:11;93357.78;;;11.35;100.00
39223;BME280;24936;46.328;11.026;2023-08-30T04:52:36;93356.03;;;11.50;100.00
39223;BME280;24936;46.328;11.026;2023-08-30T04:55:02;93356.72;;;11.44;100.00
39223;BME280;24936;46.328;11.026;2023-08-30T04:57:28;93358.97;;;11.55;100.00
39223;BME280;24936;46.328;11.026;2023-08-30T04:59:54;93356.53;;;11.45;100.00
39223;BME280;24936;46.328;11.026;2023-08-30T05:02:20;93357.91;;;11.41;100.00
39223;BME280;24936;46.328;11.026;2023-08-30T05:04:45;93365.31;;;11.38;100.00
39223;BME280;24936;46.328;11.026;2023-08-30T05:07:10;93366.28;;;11.37;100.00
39223;BME280;24936;46.328;11.026;2023-08-30T05:09:36;93368.53;;;11.56;100.00
39223;BME280;24936;46.328;11.026;2023-08-30T05:12:01;93367.84;;;11.62;100.00
39223;BME280;24936;46.328;11.026;2023-08-30T05:14:27;93356.91;;;11.74;100.00
39223;BME280;24936;46.328;11.026;2023-08-30T05:16:53;93354.53;;;11.87;100.00
39223;BME280;24936;46.328;11.026;2023-08-30T05:19:18;93352.81;;;11.94;100.00
39223;BME280;24936;46.328;11.026;2023-08-30T05:21:44;93361.19;;;12.06;100.00
39223;BME280;24936;46.328;11.026;2023-08-30T05:24:10;93361.94;;;12.15;100.00
39223;BME280;24936;46.328;11.026;2023-08-30T05:26:36;93363.06;;;12.21;100.00
39223;BME280;24936;46.328;11.026;2023-08-30T05:29:02;93369.38;;;12.12;100.00
39223;BME280;24936;46.328;11.026;2023-08-30T05:31:28;93370.25;;;12.04;100.00
39223;BME280;24936;46.328;11.026;2023-08-30T05:33:54;93363.97;;;12.05;100.00
39223;BME280;24936;46.328;11.026;2023-08-30T05:36:19;93372.75;;;12.20;100.00
39223;BME280;24936;46.328;11.026;2023-08-30T05:38:45;93370.25;;;12.27;100.00
39223;BME280;24936;46.328;11.026;2023-08-30T05:41:10;93372.31;;;12.17;100.00
39223;BME280;24936;46.328;11.026;2023-08-30T05:43:36;93375.88;;;12.24;100.00
39223;BME280;24936;46.328;11.026;2023-08-30T05:46:01;93376.88;;;12.46;100.00
39223;BME280;24936;46.328;11.026;2023-08-30T05:48:33;93383.53;;;12.57;100.00
39223;BME280;24936;46.328;11.026;2023-08-30T05:50:58;93371.28;;;12.79;100.00
39223;BME280;24936;46.328;11.026;2023-08-30T05:53:24;93374.28;;;12.76;100.00
39223;BME280;24936;46.328;11.026;2023-08-30T05:55:49;93378.66;;;12.84;100.00
39223;BME280;24936;46.328;11.026;2023-08-30T05:58:15;93376.69;;;13.01;100.00
39223;BME280;24936;46.328;11.026;2023-08-30T06:00:41;93374.50;;;13.20;100.00
39223;BME280;24936;46.328;11.026;2023-08-30T06:03:07;93374.69;;;13.18;100.00
39223;BME280;24936;46.328;11.026;2023-08-30T06:05:33;93370.69;;;13.37;100.00
39223;BME280;24936;46.328;11.026;2023-08-30T06:07:58;93379.00;;;13.49;100.00
39223;BME280;24936;46.328;11.026;2023-08-30T06:10:24;93375.16;;;13.52;100.00
39223;BME280;24936;46.328;11.026;2023-08-30T06:12:49;93368.94;;;13.44;100.00
39223;BME280;24936;46.328;11.026;2023-08-30T06:15:15;93374.03;;;13.61;100.00
39223;BME280;24936;46.328;11.026;2023-08-30T06:17:40;93372.59;;;13.58;100.00
39223;BME280;24936;46.328;11.026;2023-08-30T06:20:06;93372.78;;;13.57;100.00
39223;BME280;24936;46.328;11.026;2023-08-30T06:22:32;93378.88;;;13.57;100.00
39223;BME280;24936;46.328;11.026;2023-08-30T06:24:57;93375.13;;;13.82;100.00
39223;BME280;24936;46.328;11.026;2023-08-30T06:27:23;93382.91;;;13.90;100.00
39223;BME280;24936;46.328;11.026;2023-08-30T06:29:49;93390.22;;;13.88;100.00
39223;BME280;24936;46.328;11.026;2023-08-30T06:32:16;93386.00;;;13.94;100.00
39223;BME280;24936;46.328;11.026;2023-08-30T06:34:42;93399.06;;;13.95;100.00
39223;BME280;24936;46.328;11.026;2023-08-30T06:37:07;93394.69;;;13.87;100.00
39223;BME280;24936;46.328;11.026;2023-08-30T06:39:33;93404.69;;;13.70;100.00
39223;BME280;24936;46.328;11.026;2023-08-30T06:42:00;93404.50;;;13.57;100.00
39223;BME280;24936;46.328;11.026;2023-08-30T06:44:25;93420.81;;;13.45;100.00
39223;BME280;24936;46.328;11.026;2023-08-30T06:46:51;93414.44;;;13.40;100.00
39223;BME280;24936;46.328;11.026;2023-08-30T06:49:16;93422.44;;;13.46;100.00
39223;BME280;24936;46.328;11.026;2023-08-30T06:51:42;93423.53;;;13.52;100.00
39223;BME280;24936;46.328;11.026;2023-08-30T06:54:07;93420.19;;;13.43;100.00
39223;BME280;24936;46.328;11.026;2023-08-30T06:56:32;93420.09;;;13.52;100.00
39223;BME280;24936;46.328;11.026;2023-08-30T06:59:01;93415.63;;;13.52;100.00
39223;BME280;24936;46.328;11.026;2023-08-30T07:01:27;93407.69;;;13.67;100.00
39223;BME280;24936;46.328;11.026;2023-08-30T07:03:52;93406.31;;;13.71;100.00
39223;BME280;24936;46.328;11.026;2023-08-30T07:06:18;93407.41;;;13.62;100.00
39223;BME280;24936;46.328;11.026;2023-08-30T07:08:43;93405.69;;;13.69;100.00
39223;BME280;24936;46.328;11.026;2023-08-30T07:11:09;93413.00;;;14.04;100.00
39223;BME280;24936;46.328;11.026;2023-08-30T07:13:35;93402.50;;;14.11;100.00
39223;BME280;24936;46.328;11.026;2023-08-30T07:16:01;93410.06;;;14.14;100.00
39223;BME280;24936;46.328;11.026;2023-08-30T07:18:26;93405.03;;;14.41;100.00
39223;BME280;24936;46.328;11.026;2023-08-30T07:20:52;93412.78;;;14.42;100.00
39223;BME280;24936;46.328;11.026;2023-08-30T07:23:17;93410.69;;;14.59;100.00
39223;BME280;24936;46.328;11.026;2023-08-30T07:25:43;93415.81;;;14.61;100.00
39223;BME280;24936;46.328;11.026;2023-08-30T07:28:08;93406.59;;;14.78;100.00
39223;BME280;24936;46.328;11.026;2023-08-30T07:30:34;93407.75;;;14.69;100.00
39223;BME280;24936;46.328;11.026;2023-08-30T07:33:00;93405.25;;;14.89;100.00
39223;BME280;24936;46.328;11.026;2023-08-30T07:35:26;93408.06;;;15.09;100.00
39223;BME280;24936;46.328;11.026;2023-08-30T07:37:51;93400.03;;;15.24;100.00
39223;BME280;24936;46.328;11.026;2023-08-30T07:40:16;93401.41;;;15.20;100.00
39223;BME280;24936;46.328;11.026;2023-08-30T07:42:42;93404.09;;;15.27;100.00
39223;BME280;24936;46.328;11.026;2023-08-30T07:45:07;93412.34;;;15.39;100.00
39223;BME280;24936;46.328;11.026;2023-08-30T07:47:34;93419.31;;;15.53;100.00
39223;BME280;24936;46.328;11.026;2023-08-30T07:49:59;93411.19;;;15.55;100.00
39223;BME280;24936;46.328;11.026;2023-08-30T07:52:25;93407.19;;;15.66;100.00
39223;BME280;24936;46.328;11.026;2023-08-30T07:54:50;93416.13;;;15.58;100.00
39223;BME280;24936;46.328;11.026;2023-08-30T07:57:16;93414.31;;;15.65;100.00
39223;BME280;24936;46.328;11.026;2023-08-30T07:59:41;93419.63;;;15.72;100.00
39223;BME280;24936;46.328;11.026;2023-08-30T08:02:06;93425.13;;;15.64;100.00
39223;BME280;24936;46.328;11.026;2023-08-30T08:04:33;93418.66;;;15.80;100.00
39223;BME280;24936;46.328;11.026;2023-08-30T08:06:59;93415.97;;;15.73;100.00
39223;BME280;24936;46.328;11.026;2023-08-30T08:09:24;93424.84;;;15.87;100.00
39223;BME280;24936;46.328;11.026;2023-08-30T08:11:50;93418.84;;;15.71;100.00
39223;BME280;24936;46.328;11.026;2023-08-30T08:14:18;93422.53;;;15.77;100.00
39223;BME280;24936;46.328;11.026;2023-08-30T08:16:49;93427.31;;;15.88;100.00
39223;BME280;24936;46.328;11.026;2023-08-30T08:19:15;93426.56;;;16.01;100.00
39223;BME280;24936;46.328;11.026;2023-08-30T08:21:40;93426.16;;;16.18;100.00
39223;BME280;24936;46.328;11.026;2023-08-30T08:24:06;93417.06;;;16.34;100.00
39223;BME280;24936;46.328;11.026;2023-08-30T08:26:34;93420.94;;;16.45;100.00
39223;BME280;24936;46.328;11.026;2023-08-30T08:29:00;93426.09;;;16.60;100.00
39223;BME280;24936;46.328;11.026;2023-08-30T08:31:25;93419.38;;;16.84;100.00
39223;BME280;24936;46.328;11.026;2023-08-30T08:34:09;93421.00;;;16.78;100.00
39223;BME280;24936;46.328;11.026;2023-08-30T08:36:35;93416.72;;;16.91;100.00
39223;BME280;24936;46.328;11.026;2023-08-30T08:39:06;93423.03;;;16.83;100.00
39223;BME280;24936;46.328;11.026;2023-08-30T08:41:42;93415.28;;;17.22;100.00
39223;BME280;24936;46.328;11.026;2023-08-30T08:44:09;93417.69;;;17.57;100.00
39223;BME280;24936;46.328;11.026;2023-08-30T08:46:36;93409.66;;;17.77;100.00
39223;BME280;24936;46.328;11.026;2023-08-30T08:49:20;93414.28;;;17.95;100.00
39223;BME280;24936;46.328;11.026;2023-08-30T08:51:46;93413.00;;;18.18;100.00
39223;BME280;24936;46.328;11.026;2023-08-30T08:54:12;93409.19;;;18.39;100.00
39223;BME280;24936;46.328;11.026;2023-08-30T08:56:38;93414.56;;;18.32;100.00
39223;BME280;24936;46.328;11.026;2023-08-30T08:59:05;93418.13;;;18.58;100.00
39223;BME280;24936;46.328;11.026;2023-08-30T09:01:34;93424.56;;;18.44;100.00
39223;BME280;24936;46.328;11.026;2023-08-30T09:04:10;93425.59;;;18.43;100.00
39223;BME280;24936;46.328;11.026;2023-08-30T09:06:37;93408.75;;;18.49;100.00
39223;BME280;24936;46.328;11.026;2023-08-30T09:09:03;93417.09;;;19.42;100.00
39223;BME280;24936;46.328;11.026;2023-08-30T09:11:30;93426.75;;;20.67;100.00
39223;BME280;24936;46.328;11.026;2023-08-30T09:13:55;93412.16;;;21.59;88.50
39223;BME280;24936;46.328;11.026;2023-08-30T09:16:24;93410.69;;;22.28;74.70
39223;BME280;24936;46.328;11.026;2023-08-30T09:18:59;93401.25;;;23.46;64.42
39223;BME280;24936;46.328;11.026;2023-08-30T09:21:25;93403.41;;;23.66;67.45
39223;BME280;24936;46.328;11.026;2023-08-30T09:24:20;93401.69;;;24.66;51.01
39223;BME280;24936;46.328;11.026;2023-08-30T09:26:54;93396.94;;;25.01;49.37
39223;BME280;24936;46.328;11.026;2023-08-30T09:29:21;93396.63;;;25.62;52.93
39223;BME280;24936;46.328;11.026;2023-08-30T09:31:51;93396.91;;;26.09;46.52
39223;BME280;24936;46.328;11.026;2023-08-30T09:34:25;93399.19;;;26.43;41.11
39223;BME280;24936;46.328;11.026;2023-08-30T09:36:51;93389.31;;;26.75;42.30
39223;BME280;24936;46.328;11.026;2023-08-30T09:39:17;93391.25;;;26.79;42.70
39223;BME280;24936;46.328;11.026;2023-08-30T09:41:44;93393.16;;;26.99;41.27
39223;BME280;24936;46.328;11.026;2023-08-30T09:44:14;93391.81;;;27.12;41.91
39223;BME280;24936;46.328;11.026;2023-08-30T09:46:45;93398.50;;;28.08;42.26
39223;BME280;24936;46.328;11.026;2023-08-30T09:49:11;93395.00;;;28.13;41.95
39223;BME280;24936;46.328;11.026;2023-08-30T09:51:39;93390.31;;;28.34;41.97
39223;BME280;24936;46.328;11.026;2023-08-30T09:54:24;93396.19;;;26.34;43.95
39223;BME280;24936;46.328;11.026;2023-08-30T09:56:50;93395.78;;;23.97;52.13
39223;BME280;24936;46.328;11.026;2023-08-30T09:59:19;93395.94;;;23.17;57.99
39223;BME280;24936;46.328;11.026;2023-08-30T10:01:47;93395.59;;;22.39;62.37
39223;BME280;24936;46.328;11.026;2023-08-30T10:04:19;93393.56;;;22.58;67.73
39223;BME280;24936;46.328;11.026;2023-08-30T10:06:45;93387.56;;;22.39;65.10
39223;BME280;24936;46.328;11.026;2023-08-30T10:09:21;93394.09;;;22.43;70.78
39223;BME280;24936;46.328;11.026;2023-08-30T10:11:48;93382.44;;;22.49;71.49
39223;BME280;24936;46.328;11.026;2023-08-30T10:14:17;93390.56;;;22.13;61.22
39223;BME280;24936;46.328;11.026;2023-08-30T10:16:46;93388.78;;;21.43;61.32
39223;BME280;24936;46.328;11.026;2023-08-30T10:19:16;93382.03;;;21.16;66.15
39223;BME280;24936;46.328;11.026;2023-08-30T10:21:47;93375.97;;;21.68;54.86
39223;BME280;24936;46.328;11.026;2023-08-30T10:24:15;93367.91;;;21.92;57.16
39223;BME280;24936;46.328;11.026;2023-08-30T10:26:43;93369.28;;;23.28;54.08
39223;BME280;24936;46.328;11.026;2023-08-30T10:29:10;93375.63;;;22.58;58.03
39223;BME280;24936;46.328;11.026;2023-08-30T10:31:40;93365.25;;;21.92;63.96
39223;BME280;24936;46.328;11.026;2023-08-30T10:34:17;93365.50;;;21.55;58.33
39223;BME280;24936;46.328;11.026;2023-08-30T10:36:56;93367.78;;;21.99;58.69
39223;BME280;24936;46.328;11.026;2023-08-30T10:39:33;93363.09;;;22.06;56.64
39223;BME280;24936;46.328;11.026;2023-08-30T10:41:59;93355.91;;;22.36;68.90
39223;BME280;24936;46.328;11.026;2023-08-30T10:44:25;93355.94;;;22.24;63.38
39223;BME280;24936;46.328;11.026;2023-08-30T10:46:54;93351.00;;;22.04;65.64
39223;BME280;24936;46.328;11.026;2023-08-30T10:49:20;93357.47;;;22.95;64.30
39223;BME280;24936;46.328;11.026;2023-08-30T10:51:54;93354.19;;;22.92;63.25
39223;BME280;24936;46.328;11.026;2023-08-30T10:54:20;93348.53;;;22.89;59.29
39223;BME280;24936;46.328;11.026;2023-08-30T10:56:47;93350.81;;;22.97;61.62
39223;BME280;24936;46.328;11.026;2023-08-30T10:59:20;93347.19;;;24.49;49.50
39223;BME280;24936;46.328;11.026;2023-08-30T11:01:47;93345.34;;;25.42;51.39
39223;BME280;24936;46.328;11.026;2023-08-30T11:04:15;93343.28;;;24.12;44.69
39223;BME280;24936;46.328;11.026;2023-08-30T11:06:45;93344.00;;;24.02;47.99
39223;BME280;24936;46.328;11.026;2023-08-30T11:09:14;93340.16;;;24.42;48.31
39223;BME280;24936;46.328;11.026;2023-08-30T11:11:40;93329.03;;;25.64;45.27
39223;BME280;24936;46.328;11.026;2023-08-30T11:14:08;93339.09;;;26.63;39.51
39223;BME280;24936;46.328;11.026;2023-08-30T11:16:37;93331.09;;;26.05;39.93
39223;BME280;24936;46.328;11.026;2023-08-30T11:19:04;93326.88;;;25.61;44.21
39223;BME280;24936;46.328;11.026;2023-08-30T11:21:42;93326.56;;;25.52;44.78
39223;BME280;24936;46.328;11.026;2023-08-30T11:24:07;93334.00;;;24.74;49.17
39223;BME280;24936;46.328;11.026;2023-08-30T11:26:34;93322.09;;;23.71;45.30
39223;BME280;24936;46.328;11.026;2023-08-30T11:29:07;93318.13;;;23.00;45.57
39223;BME280;24936;46.328;11.026;2023-08-30T11:31:33;93326.22;;;22.71;49.47
39223;BME280;24936;46.328;11.026;2023-08-30T11:33:59;93324.97;;;22.74;45.47
39223;BME280;24936;46.328;11.026;2023-08-30T11:36:31;93323.06;;;22.91;49.18
39223;BME280;24936;46.328;11.026;2023-08-30T11:38:57;93325.81;;;23.14;57.81
39223;BME280;24936;46.328;11.026;2023-08-30T11:41:23;93315.16;;;23.53;56.58
39223;BME280;24936;46.328;11.026;2023-08-30T11:43:49;93319.28;;;23.21;56.13
39223;BME280;24936;46.328;11.026;2023-08-30T11:46:16;93311.03;;;23.11;55.49
39223;BME280;24936;46.328;11.026;2023-08-30T11:48:51;93317.66;;;22.86;57.65
39223;BME280;24936;46.328;11.026;2023-08-30T11:51:18;93314.34;;;22.50;56.57
39223;BME280;24936;46.328;11.026;2023-08-30T11:53:45;93316.75;;;22.35;63.57
39223;BME280;24936;46.328;11.026;2023-08-30T11:56:11;93327.34;;;22.12;66.77
39223;BME280;24936;46.328;11.026;2023-08-30T11:58:37;93316.50;;;21.66;70.19
39223;BME280;24936;46.328;11.026;2023-08-30T12:01:07;93321.06;;;21.30;70.85
39223;BME280;24936;46.328;11.026;2023-08-30T12:03:32;93320.25;;;21.06;75.89
39223;BME280;24936;46.328;11.026;2023-08-30T12:08:43;93324.56;;;21.19;68.75
39223;BME280;24936;46.328;11.026;2023-08-30T12:11:20;93316.06;;;20.98;73.56
39223;BME280;24936;46.328;11.026;2023-08-30T12:13:46;93324.22;;;20.80;71.64
39223;BME280;24936;46.328;11.026;2023-08-30T12:19:10;93327.13;;;20.47;74.63
39223;BME280;24936;46.328;11.026;2023-08-30T12:21:42;93314.34;;;20.07;71.97
39223;BME280;24936;46.328;11.026;2023-08-30T12:24:09;93321.19;;;20.03;74.40
39223;BME280;24936;46.328;11.026;2023-08-30T12:26:34;93313.75;;;20.05;70.32
39223;BME280;24936;46.328;11.026;2023-08-30T12:29:00;93319.59;;;20.14;66.45
39223;BME280;24936;46.328;11.026;2023-08-30T12:31:26;93317.34;;;20.41;77.13
39223;BME280;24936;46.328;11.026;2023-08-30T12:33:54;93315.53;;;20.54;77.57
39223;BME280;24936;46.328;11.026;2023-08-30T12:36:19;93323.03;;;20.75;74.73
39223;BME280;24936;46.328;11.026;2023-08-30T12:38:45;93319.75;;;20.73;64.29
39223;BME280;24936;46.328;11.026;2023-08-30T12:41:10;93317.34;;;20.96;69.84
39223;BME280;24936;46.328;11.026;2023-08-30T12:43:36;93320.38;;;20.75;66.93
39223;BME280;24936;46.328;11.026;2023-08-30T12:46:01;93322.75;;;20.65;67.22
39223;BME280;24936;46.328;11.026;2023-08-30T12:48:26;93322.50;;;20.55;72.40
39223;BME280;24936;46.328;11.026;2023-08-30T12:50:52;93317.16;;;20.55;73.74
39223;BME280;24936;46.328;11.026;2023-08-30T12:53:17;93316.47;;;20.59;81.73
39223;BME280;24936;46.328;11.026;2023-08-30T12:55:43;93315.84;;;20.45;76.39